ADDS METAR Data INFO
IDs: Format: Raw Decoded Include TAF

Data at: 0731 UTC 18 Oct 2017

KTHA 180715Z AUTO 00000KT 06/05 A3027 RMK
KTHA 180655Z AUTO 00000KT 06/04 A3028 RMK
KTHA 180635Z AUTO 00000KT 06/04 A3028 RMK
KTHA 180615Z AUTO 00000KT 06/05 A3028 RMK
KTHA 180555Z AUTO 00000KT 06/04 A3028 RMK
KTHA 180535Z AUTO 00000KT 06/04 A3029 RMK
KTHA 180515Z AUTO 00000KT 07/06 A3029 RMK
KTHA 180455Z AUTO 00000KT 07/06 A3029 RMK
KTHA 180435Z AUTO 00000KT 10SM CLR 07/05 A3029 RMK
KTHA 180415Z AUTO 00000KT 07/06 A3029 RMK
KTHA 180355Z AUTO 00000KT 10SM CLR 07/06 A3029 RMK
KTHA 180335Z AUTO 00000KT 10SM CLR 08/06 A3029 RMK
KTHA 180315Z AUTO 00000KT 10SM CLR 08/06 A3029 RMK
KTHA 180255Z AUTO 00000KT 10SM CLR 08/06 A3029 RMK
KTHA 180235Z AUTO 00000KT 10SM CLR 08/06 A3029 RMK
KTHA 180215Z AUTO 00000KT 10SM CLR 08/07 A3029 RMK
KTHA 180155Z AUTO 00000KT 10SM CLR 08/07 A3029 RMK
KTHA 180135Z AUTO 00000KT 10SM CLR 09/07 A3028 RMK
KTHA 180115Z AUTO 00000KT 10SM CLR 09/07 A3027 RMK
KTHA 180055Z AUTO 00000KT 10SM CLR 10/07 A3028 RMK
KTHA 180035Z AUTO 00000KT 10SM CLR 11/08 A3027 RMK
KTHA 180015Z AUTO 00000KT 10SM CLR 11/08 A3027 RMK
KTHA 172355Z AUTO 00000KT 10SM CLR 12/08 A3027 RMK
KTHA 172335Z AUTO 00000KT 10SM CLR 13/08 A3026 RMK
KTHA 172315Z AUTO 00000KT 10SM CLR 14/07 A3026 RMK
KTHA 172255Z AUTO 33003KT 10SM CLR 16/06 A3026 RMK
KTHA 172235Z AUTO 33003KT 10SM CLR 18/05 A3026 RMK
KTHA 172215Z AUTO 00000KT 10SM CLR 18/04 A3026 RMK
KTHA 172155Z AUTO 00000KT 10SM CLR 18/02 A3026 RMK
KTHA 172135Z AUTO 31003KT 10SM CLR 19/02 A3026 RMK
KTHA 172115Z AUTO 36004KT 10SM CLR 19/02 A3026 RMK
KTHA 172055Z AUTO 35003KT 10SM CLR 19/02 A3027 RMK
KTHA 172035Z AUTO VRB03KT 10SM CLR 19/02 A3027 RMK
KTHA 172015Z AUTO 00000KT 10SM CLR 19/02 A3027 RMK
KTHA 171955Z AUTO 00000KT 10SM CLR 19/02 A3028 RMK
KTHA 171935Z AUTO 00000KT 10SM CLR 20/02 A3028 RMK
KTHA 171915Z AUTO 16004KT 10SM CLR 19/02 A3029 RMK
KTHA 171855Z AUTO 02003KT 10SM CLR 19/02 A3030 RMK
KTHA 171835Z AUTO 00000KT 10SM CLR 18/02 A3030 RMK
KTHA 171815Z AUTO 13003KT 10SM CLR 18/03 A3030 RMK
KTHA 171755Z AUTO 00000KT 10SM CLR 18/02 A3031 RMK
KTHA 171735Z AUTO 00000KT 10SM CLR 17/02 A3033 RMK
KTHA 171715Z AUTO 03004KT 10SM CLR 17/03 A3034 RMK
KTHA 171655Z AUTO 11004KT 10SM CLR 17/03 A3035 RMK
KTHA 171635Z AUTO 00000KT 9SM CLR 16/04 A3036 RMK
KTHA 171615Z AUTO 00000KT 10SM CLR 16/04 A3037 RMK
KTHA 171555Z AUTO VRB04KT 10SM CLR 16/04 A3037 RMK
KTHA 171535Z AUTO 00000KT 10SM CLR 14/04 A3038 RMK
KTHA 171515Z AUTO VRB03KT 10SM CLR 14/04 A3038 RMK
KTHA 171455Z AUTO 13004KT 10SM CLR 13/04 A3038 RMK
KTHA 171435Z AUTO 12004KT 10SM CLR 12/04 A3038 RMK
KTHA 171415Z AUTO 13004KT 10SM CLR 11/04 A3037 RMK
KTHA 171355Z AUTO 00000KT 10SM CLR 10/05 A3037 RMK
KTHA 171335Z AUTO 06003KT 10SM CLR 09/05 A3036 RMK
KTHA 171315Z AUTO 04003KT 10SM CLR 08/04 A3036 RMK
KTHA 171255Z AUTO 00000KT 10SM CLR 07/04 A3035 RMK
KTHA 171235Z AUTO 00000KT 05/04 A3034 RMK
KTHA 171215Z AUTO 00000KT 03/02 A3034 RMK
KTHA 171155Z AUTO 00000KT 04/02 A3033 RMK
KTHA 171135Z AUTO 00000KT 04/02 A3033 RMK
KTHA 171115Z AUTO 00000KT 04/02 A3032 RMK
KTHA 171055Z AUTO 00000KT 06/04 A3032 RMK
KTHA 171035Z AUTO 00000KT 06/04 A3032 RMK
KTHA 171015Z AUTO 00000KT 06/04 A3031 RMK
KTHA 170955Z AUTO 00000KT 05/03 A3031 RMK
KTHA 170935Z AUTO 01004KT 04/03 A3031 RMK
KTHA 170915Z AUTO 00000KT 04/02 A3030 RMK
KTHA 170855Z AUTO 00000KT 03/02 A3030 RMK
KTHA 170835Z AUTO 00000KT 05/03 A3029 RMK
KTHA 170815Z AUTO 00000KT 06/03 A3029 RMK
KTHA 170755Z AUTO 00000KT 05/03 A3029 RMK
KTHA 170735Z AUTO 00000KT 06/04 A3029 RMK
KTHA 170715Z AUTO 00000KT 06/04 A3029 RMK
KTHA 170655Z AUTO 00000KT 07/04 A3029 RMK
KTHA 170635Z AUTO 00000KT 07/04 A3029 RMK
KTHA 170615Z AUTO 00000KT 07/05 A3029 RMK
KTHA 170555Z AUTO 00000KT 07/05 A3029 RMK
KTHA 170535Z AUTO 01004KT 10SM CLR 07/04 A3030 RMK
KTHA 170515Z AUTO 01003KT 10SM CLR 07/04 A3030 RMK
KTHA 170455Z AUTO 00000KT 10SM CLR 09/04 A3030 RMK
KTHA 170435Z AUTO 00000KT 10SM CLR 09/04 A3030 RMK
KTHA 170415Z AUTO 05003KT 10SM CLR 09/04 A3030 RMK
KTHA 170355Z AUTO 05003KT 10SM CLR 10/04 A3030 RMK
KTHA 170335Z AUTO 06003KT 10SM CLR 11/04 A3030 RMK
KTHA 170315Z AUTO 04005KT 10SM CLR 11/04 A3030 RMK
KTHA 170255Z AUTO 04004KT 10SM CLR 11/04 A3029 RMK
KTHA 170235Z AUTO 03003KT 10SM CLR 11/04 A3029 RMK
KTHA 170215Z AUTO 02004KT 10SM CLR 10/05 A3029 RMK
KTHA 170155Z AUTO 02004KT 10SM CLR 10/05 A3029 RMK
KTHA 170135Z AUTO 02003KT 10SM CLR 10/04 A3028 RMK
KTHA 170115Z AUTO 01005KT 10SM CLR 10/05 A3028 RMK
KTHA 170055Z AUTO 01003KT 10SM CLR 10/05 A3028 RMK
KTHA 170035Z AUTO 01005KT 10SM CLR 11/05 A3027 RMK
KTHA 170015Z AUTO 01007KT 10SM CLR 11/04 A3027 RMK
KTHA 162355Z AUTO 01006KT 10SM CLR 11/04 A3027 RMK
KTHA 162335Z AUTO 01005KT 10SM CLR 12/04 A3026 RMK
KTHA 162315Z AUTO 01007KT 10SM CLR 13/04 A3025 RMK
KTHA 162255Z AUTO 01006KT 10SM CLR 14/04 A3025 RMK
KTHA 162235Z AUTO 01008KT 10SM CLR 15/04 A3025 RMK
KTHA 162215Z AUTO 01007KT 10SM CLR 16/04 A3024 RMK
KTHA 162155Z AUTO 04008KT 10SM CLR 16/03 A3024 RMK
KTHA 162135Z AUTO 02011KT 10SM CLR 17/03 A3023 RMK
KTHA 162115Z AUTO 02011KT 10SM CLR 17/03 A3023 RMK
KTHA 162055Z AUTO 02009KT 10SM CLR 17/03 A3023 RMK
KTHA 162035Z AUTO 36012KT 10SM CLR 17/04 A3023 RMK
KTHA 162015Z AUTO 01012KT 10SM CLR 17/03 A3024 RMK
KTHA 161955Z AUTO 35011G19KT 290V030 10SM CLR 17/04 A3024 RMK
KTHA 161935Z AUTO 03009KT 10SM CLR 17/03 A3024 RMK